Time;durP1;ratioP1;P1;durP2;ratioP2;P2;SDS_P1;SDS_P2;PMS_P1;PMS_P2;Temp;Humidity;BMP_temperature;BMP_pressure;BME280_temperature;BME280_humidity;BME280_pressure;Samples;Min_cycle;Max_cycle;Signal;HPM_P1;HPM_P2
2022/05/13 00:00:27;;;;;;;3.08;0.65;;;;;;;13.57;57.68;101864.09;5037900;28;97920;-34
2022/05/13 00:02:52;;;;;;;5.20;0.93;;;;;;;13.57;57.71;101866.81;5037019;28;122941;-34
2022/05/13 00:05:17;;;;;;;6.57;1.10;;;;;;;13.55;58.58;101849.69;5038167;28;96674;-34
2022/05/13 00:07:43;;;;;;;3.10;0.50;;;;;;;13.56;59.72;101861.44;5036490;28;97095;-34
2022/05/13 00:10:08;;;;;;;1.92;0.77;;;;;;;13.56;60.01;101854.19;5036600;28;126149;-34
2022/05/13 00:12:42;;;;;;;4.70;0.77;;;;;;;13.65;58.89;101860.03;5036553;28;97790;-34
2022/05/13 00:15:13;;;;;;;5.95;0.80;;;;;;;13.62;60.17;101861.09;5037538;28;96664;-34
2022/05/13 00:17:39;;;;;;;5.80;0.90;;;;;;;13.54;63.52;101842.50;5036104;28;96586;-34
2022/05/13 00:20:05;;;;;;;4.78;0.63;;;;;;;13.49;63.05;101860.94;5035873;28;101559;-34
2022/05/13 00:22:31;;;;;;;4.45;0.55;;;;;;;13.46;61.44;101855.66;5035918;28;102402;-34
2022/05/13 00:24:56;;;;;;;2.65;0.60;;;;;;;13.48;61.08;101842.84;5037065;28;104224;-34
2022/05/13 00:27:22;;;;;;;3.25;0.88;;;;;;;13.49;60.43;101843.72;5037679;28;96806;-34
2022/05/13 00:29:48;;;;;;;3.42;1.00;;;;;;;13.51;62.05;101863.56;5035793;28;100868;-34
2022/05/13 00:32:13;;;;;;;1.23;0.60;;;;;;;13.41;62.73;101857.75;5019406;28;101015;-34
2022/05/13 00:34:38;;;;;;;1.95;0.77;;;;;;;13.47;63.59;101849.25;5037735;28;96524;-34
2022/05/13 00:37:04;;;;;;;8.05;0.90;;;;;;;13.43;65.16;101844.09;5037143;28;100385;-34
2022/05/13 00:39:29;;;;;;;4.90;1.13;;;;;;;13.45;64.04;101845.75;5036388;28;99346;-34
2022/05/13 00:41:55;;;;;;;2.35;0.77;;;;;;;13.50;62.77;101857.25;5036875;28;98521;-34
2022/05/13 00:44:21;;;;;;;5.78;1.15;;;;;;;13.51;63.75;101845.38;5037598;28;96496;-34
2022/05/13 00:46:47;;;;;;;2.65;0.98;;;;;;;13.50;63.13;101848.19;5035979;28;96831;-34
2022/05/13 00:49:15;;;;;;;9.65;1.30;;;;;;;13.53;63.58;101857.06;5037075;28;97991;-34
2022/05/13 00:51:45;;;;;;;9.95;1.10;;;;;;;13.53;62.88;101846.16;5036826;28;98808;-34
2022/05/13 00:54:13;;;;;;;4.18;1.23;;;;;;;13.50;63.38;101840.03;5018895;28;96904;-34
2022/05/13 00:56:42;;;;;;;6.75;1.17;;;;;;;13.48;64.56;101831.06;5036021;28;96894;-34
2022/05/13 00:59:12;;;;;;;4.45;1.10;;;;;;;13.50;64.13;101843.63;5035265;28;101147;-34
2022/05/13 01:01:37;;;;;;;3.50;1.10;;;;;;;13.49;65.15;101833.72;5035382;28;100973;-34
2022/05/13 01:04:07;;;;;;;6.82;1.70;;;;;;;13.50;65.43;101837.31;5036605;28;96624;-34
2022/05/13 01:06:33;;;;;;;5.93;1.17;;;;;;;13.54;64.71;101838.91;5035386;28;96909;-34
2022/05/13 01:08:59;;;;;;;3.65;0.88;;;;;;;13.57;64.96;101836.00;5034391;28;100833;-34
2022/05/13 01:11:28;;;;;;;5.07;1.48;;;;;;;13.54;64.42;101830.72;5036221;28;99095;-34
2022/05/13 01:14:00;;;;;;;5.43;1.52;;;;;;;13.54;64.71;101831.59;5018141;28;96685;-34
2022/05/13 01:16:26;;;;;;;2.42;1.02;;;;;;;13.49;64.90;101828.28;5036889;28;96686;-34
2022/05/13 01:18:51;;;;;;;4.32;1.10;;;;;;;13.60;64.43;101841.25;5036399;28;97995;-34
2022/05/13 01:21:25;;;;;;;6.72;1.05;;;;;;;13.64;64.93;101848.28;5035695;28;125158;-34
2022/05/13 01:23:52;;;;;;;7.38;1.35;;;;;;;13.63;63.36;101845.63;5018570;28;96734;-34
2022/05/13 01:26:20;;;;;;;5.78;1.50;;;;;;;13.63;63.78;101840.19;5036821;28;96732;-34
2022/05/13 01:28:50;;;;;;;5.38;1.27;;;;;;;13.65;63.90;101846.44;5017938;28;101104;-34
2022/05/13 01:31:32;;;;;;;3.47;1.10;;;;;;;13.71;64.91;101849.69;5018168;28;98635;-34
2022/05/13 01:34:05;;;;;;;5.55;1.02;;;;;;;13.63;64.98;101834.75;5018439;28;96684;-34
2022/05/13 01:36:31;;;;;;;3.60;0.95;;;;;;;13.67;63.80;101834.47;5018602;28;96740;-34
2022/05/13 01:38:58;;;;;;;5.82;1.35;;;;;;;13.67;64.91;101839.06;5034835;28;101052;-34
2022/05/13 01:41:29;;;;;;;8.65;1.33;;;;;;;13.69;64.65;101828.94;5034737;28;100760;-34
2022/05/13 01:43:56;;;;;;;1.52;0.75;;;;;;;13.67;64.19;101847.22;5036939;28;96482;-34
2022/05/13 01:46:22;;;;;;;2.65;1.02;;;;;;;13.67;65.18;101839.91;5018556;28;96981;-34
2022/05/13 01:48:49;;;;;;;4.82;1.20;;;;;;;13.69;64.82;101832.53;5034548;28;100950;-34
2022/05/13 01:51:15;;;;;;;3.55;1.52;;;;;;;13.74;64.30;101837.72;5017788;28;100975;-34
2022/05/13 01:53:40;;;;;;;4.45;1.30;;;;;;;13.74;64.77;101833.16;5034375;28;96753;-34
2022/05/13 01:56:05;;;;;;;7.10;1.30;;;;;;;13.76;64.21;101833.06;5018020;28;97532;-34
2022/05/13 01:58:31;;;;;;;7.93;1.67;;;;;;;13.65;65.10;101825.50;5036180;28;97747;-34
2022/05/13 02:00:58;;;;;;;3.72;1.52;;;;;;;13.70;64.32;101831.56;5017590;28;101993;-34
2022/05/13 02:03:44;;;;;;;7.60;1.20;;;;;;;13.73;64.15;101831.41;5018060;28;96682;-34
2022/05/13 02:06:18;;;;;;;4.72;1.38;;;;;;;13.73;63.89;101830.50;5036099;28;96707;-34
2022/05/13 02:08:43;;;;;;;3.33;0.68;;;;;;;13.75;64.10;101834.91;5034387;28;100977;-34
2022/05/13 02:11:09;;;;;;;5.40;1.27;;;;;;;13.69;63.49;101834.41;5034505;28;101006;-34
2022/05/13 02:13:35;;;;;;;6.82;1.00;;;;;;;13.67;63.02;101822.72;5024180;28;100206;-34
2022/05/13 02:16:03;;;;;;;1.23;0.80;;;;;;;13.75;62.89;101831.28;5014440;28;96800;-34
2022/05/13 02:18:28;;;;;;;4.45;1.13;;;;;;;13.73;64.04;101828.69;5014345;28;97966;-34
2022/05/13 02:20:55;;;;;;;4.03;1.45;;;;;;;13.67;63.29;101829.03;5014767;28;97447;-34
2022/05/13 02:23:21;;;;;;;1.55;0.57;;;;;;;13.65;63.81;101811.03;4997643;28;96573;-34
2022/05/13 02:25:48;;;;;;;3.08;0.93;;;;;;;13.72;63.16;101845.09;5015684;28;96784;-34
2022/05/13 02:28:13;;;;;;;4.15;1.17;;;;;;;13.71;63.48;101830.63;5015161;28;98083;-34
2022/05/13 02:30:39;;;;;;;1.83;0.90;;;;;;;13.61;62.77;101821.25;5015329;28;97786;-34
2022/05/13 02:33:04;;;;;;;4.18;0.98;;;;;;;13.67;62.79;101837.19;5014625;28;116144;-34
2022/05/13 02:35:29;;;;;;;7.13;1.38;;;;;;;13.58;63.17;101822.28;5015950;28;96835;-34
2022/05/13 02:37:55;;;;;;;2.67;1.05;;;;;;;13.57;62.47;101825.97;5015150;28;103565;-34
2022/05/13 02:41:11;;;;;;;2.00;0.88;;;;;;;13.56;62.46;101815.16;5014190;28;117820;-34
2022/05/13 02:43:07;;;;;;;3.92;0.90;;;;;;;13.56;62.59;101817.88;5014568;28;96807;-34
2022/05/13 02:45:32;;;;;;;1.73;0.70;;;;;;;13.52;62.73;101803.59;5014741;28;110710;-34
2022/05/13 02:47:57;;;;;;;3.33;1.15;;;;;;;13.63;62.09;101810.25;5012551;28;127437;-34
2022/05/13 02:50:22;;;;;;;5.05;1.08;;;;;;;13.53;61.97;101788.13;5014555;28;117750;-34
2022/05/13 02:52:50;;;;;;;6.43;1.25;;;;;;;13.56;62.04;101791.56;5014942;28;96532;-34
2022/05/13 02:55:16;;;;;;;4.22;1.15;;;;;;;13.54;62.30;101804.38;5013762;28;96839;-34
2022/05/13 02:57:42;;;;;;;4.05;1.02;;;;;;;13.58;62.83;101805.94;5013326;28;101035;-34
2022/05/13 03:00:09;;;;;;;7.82;1.20;;;;;;;13.57;62.27;101806.03;5013695;28;100996;-34
2022/05/13 03:02:34;;;;;;;6.72;1.10;;;;;;;13.47;62.47;101799.41;4996925;28;96647;-34
2022/05/13 03:05:00;;;;;;;3.65;0.85;;;;;;;13.46;62.96;101800.34;5015338;28;96874;-34
2022/05/13 03:07:25;;;;;;;3.42;0.90;;;;;;;13.45;62.99;101802.19;5013682;28;107276;-34
2022/05/13 03:09:50;;;;;;;3.83;0.98;;;;;;;13.43;62.91;101795.97;5015004;28;96552;-34
2022/05/13 03:12:17;;;;;;;3.85;0.98;;;;;;;13.42;63.73;101810.56;5014892;28;96421;-34
2022/05/13 03:14:42;;;;;;;4.53;0.82;;;;;;;13.34;63.77;101805.53;5013218;28;96932;-34
2022/05/13 03:17:07;;;;;;;1.60;1.05;;;;;;;13.37;64.13;101808.09;5014579;28;97981;-34
2022/05/13 03:19:35;;;;;;;2.03;1.08;;;;;;;13.32;63.51;101802.03;5014215;28;114236;-34
2022/05/13 03:22:00;;;;;;;2.83;1.00;;;;;;;13.26;63.62;101793.31;5014787;28;96618;-34
2022/05/13 03:24:25;;;;;;;1.77;0.57;;;;;;;13.31;63.63;101804.84;5015277;28;96550;-34
2022/05/13 03:26:51;;;;;;;3.78;0.70;;;;;;;13.29;63.69;101798.59;5013812;28;115630;-34
2022/05/13 03:29:16;;;;;;;1.67;0.90;;;;;;;13.29;63.42;101806.78;5012730;28;104622;-34
2022/05/13 03:31:41;;;;;;;3.45;0.93;;;;;;;13.31;64.41;101826.59;5013988;28;96475;-34
2022/05/13 03:34:07;;;;;;;1.90;0.85;;;;;;;13.15;65.31;101811.13;4996653;28;98242;-34
2022/05/13 03:36:32;;;;;;;2.78;1.00;;;;;;;13.16;64.76;101812.00;5014437;28;97494;-34
2022/05/13 03:38:57;;;;;;;2.35;0.93;;;;;;;13.20;64.98;101827.19;5012809;28;99297;-34
2022/05/13 03:41:23;;;;;;;4.05;1.25;;;;;;;13.16;64.62;101828.34;5013311;28;119386;-34
2022/05/13 03:43:48;;;;;;;3.85;1.00;;;;;;;13.13;65.66;101832.13;5013514;28;96972;-34
2022/05/13 03:46:13;;;;;;;1.95;0.82;;;;;;;13.16;65.30;101837.38;5012775;28;99545;-34
2022/05/13 03:48:39;;;;;;;3.38;1.00;;;;;;;13.11;65.99;101838.59;5014005;28;117686;-34
2022/05/13 03:51:04;;;;;;;6.05;1.05;;;;;;;13.15;65.13;101840.16;5013585;28;116942;-34
2022/05/13 03:53:29;;;;;;;1.73;0.65;;;;;;;13.07;66.19;101821.56;5014671;28;96736;-34
2022/05/13 03:55:55;;;;;;;2.75;0.90;;;;;;;13.10;65.10;101826.81;5013789;28;97523;-34
2022/05/13 03:58:20;;;;;;;4.68;1.20;;;;;;;13.15;64.74;101832.88;4979434;28;101267;-34
2022/05/13 04:00:46;;;;;;;2.63;1.30;;;;;;;13.10;65.69;101829.53;5012919;28;96688;-34
2022/05/13 04:03:13;;;;;;;3.50;0.85;;;;;;;13.10;66.46;101832.25;4996394;28;96921;-34
2022/05/13 04:11:07;;;;;;;7.88;1.23;;;;;;;13.06;65.82;101827.97;5014147;28;96744;-34
2022/05/13 04:16:16;;;;;;;2.63;1.42;;;;;;;13.08;65.89;101822.44;5034056;28;97011;-34
2022/05/13 04:18:45;;;;;;;6.38;0.98;;;;;;;13.06;67.20;101827.97;5033794;28;97958;-34
2022/05/13 04:21:14;;;;;;;4.55;1.38;;;;;;;13.08;67.41;101831.47;4998857;28;96654;-34
2022/05/13 04:23:43;;;;;;;2.53;1.30;;;;;;;13.06;66.38;101833.41;5034076;28;96761;-34
2022/05/13 04:26:12;;;;;;;5.72;1.17;;;;;;;13.11;66.75;101839.47;5033606;28;99473;-34
2022/05/13 04:28:38;;;;;;;4.07;1.30;;;;;;;13.11;67.53;101838.59;5015593;28;100804;-34
2022/05/13 04:31:03;;;;;;;6.38;1.40;;;;;;;13.03;68.04;101830.84;5033993;28;96474;-34
2022/05/13 04:33:29;;;;;;;4.20;1.35;;;;;;;12.95;70.08;101817.69;5034104;28;96942;-34
2022/05/13 04:35:54;;;;;;;4.82;1.23;;;;;;;12.96;67.63;101830.31;5034139;28;97380;-34
2022/05/13 04:38:19;;;;;;;2.53;1.15;;;;;;;12.94;69.21;101825.94;5034052;28;97771;-34
2022/05/13 04:40:45;;;;;;;3.10;1.00;;;;;;;13.03;68.06;101844.44;5033965;28;96673;-34
2022/05/13 04:43:10;;;;;;;1.63;0.85;;;;;;;13.03;68.52;101846.31;5034472;28;107088;-34
2022/05/13 04:45:35;;;;;;;5.97;1.20;;;;;;;13.04;69.14;101848.94;5035614;28;126408;-34
2022/05/13 04:48:19;;;;;;;4.53;1.00;;;;;;;13.14;68.73;101850.19;5036869;28;99185;-34
2022/05/13 04:50:54;;;;;;;4.53;1.08;;;;;;;13.17;68.80;101862.72;5035755;28;96686;-34
2022/05/13 04:53:25;;;;;;;5.13;1.25;;;;;;;13.15;68.49;101860.06;5019107;28;96810;-34
2022/05/13 04:55:52;;;;;;;5.70;1.15;;;;;;;13.13;68.88;101867.47;5035315;28;100925;-34
2022/05/13 04:58:18;;;;;;;6.18;0.88;;;;;;;13.20;68.40;101875.28;5035298;28;101136;-34
2022/05/13 05:00:46;;;;;;;4.45;1.20;;;;;;;13.23;69.08;101875.09;5036929;28;96693;-34
2022/05/13 05:03:11;;;;;;;3.47;1.27;;;;;;;13.25;69.49;101879.50;5019232;28;96817;-34
2022/05/13 05:05:37;;;;;;;8.07;1.52;;;;;;;13.33;67.96;101887.28;5036783;28;97943;-34
2022/05/13 05:08:02;;;;;;;3.45;1.20;;;;;;;13.33;68.63;101876.38;5036772;28;97826;-34
2022/05/13 05:10:28;;;;;;;4.47;1.20;;;;;;;13.37;67.68;101889.72;5034424;28;96875;-34
2022/05/13 05:12:55;;;;;;;10.63;1.58;;;;;;;13.43;68.01;101898.50;5014080;28;96858;-34
2022/05/13 05:15:21;;;;;;;3.65;0.80;;;;;;;13.44;68.10;101895.69;4998380;28;101726;-34
2022/05/13 05:17:46;;;;;;;4.22;1.23;;;;;;;13.43;67.36;101890.34;5016321;28;97302;-34
2022/05/13 05:20:12;;;;;;;8.50;1.58;;;;;;;13.49;68.27;101896.31;5016657;28;96674;-34
2022/05/13 05:22:38;;;;;;;6.10;1.17;;;;;;;13.54;67.57;101899.66;5016707;28;96842;-34
2022/05/13 05:25:04;;;;;;;4.38;1.25;;;;;;;13.54;67.45;101894.22;5016074;28;99490;-34
2022/05/13 05:27:29;;;;;;;4.85;0.95;;;;;;;13.58;67.58;101901.22;5015014;28;102287;-34
2022/05/13 05:29:54;;;;;;;6.72;1.30;;;;;;;13.59;67.31;101900.28;5016753;28;96762;-34
2022/05/13 05:32:20;;;;;;;4.18;1.00;;;;;;;13.63;66.46;101897.38;5016617;28;96852;-34
2022/05/13 05:34:45;;;;;;;1.05;0.50;;;;;;;13.66;66.98;101906.25;5014978;28;126645;-34
2022/05/13 05:37:10;;;;;;;1.05;0.70;;;;;;;13.76;66.27;101920.22;5016108;28;97775;-34
2022/05/13 05:39:36;;;;;;;1.15;0.80;;;;;;;13.75;66.32;101908.44;5015506;28;117017;-34
2022/05/13 05:42:01;;;;;;;2.58;0.80;;;;;;;13.76;66.06;101918.34;5016082;28;105725;-34
2022/05/13 05:44:26;;;;;;;4.05;0.80;;;;;;;13.74;66.57;101914.84;5015862;28;99238;-34
2022/05/13 05:46:52;;;;;;;2.65;0.93;;;;;;;13.81;65.65;101915.38;5015473;28;97906;-34
2022/05/13 05:49:18;;;;;;;5.13;1.08;;;;;;;13.77;66.00;101909.19;5015169;28;117175;-34
2022/05/13 05:51:43;;;;;;;1.33;0.52;;;;;;;13.80;66.44;101911.78;4998452;28;96843;-34
2022/05/13 05:59:36;;;;;;;2.17;0.80;;;;;;;13.94;65.91;101935.50;5015742;28;96449;-34
2022/05/13 06:02:02;;;;;;;1.17;0.77;;;;;;;13.97;65.48;101937.16;5015461;28;102961;-34
2022/05/13 06:04:27;;;;;;;2.05;0.70;;;;;;;13.98;65.37;101939.75;5015129;28;99797;-34
2022/05/13 06:06:52;;;;;;;2.08;0.90;;;;;;;13.96;64.95;101921.75;5014074;28;115541;-34
2022/05/13 06:09:18;;;;;;;9.55;0.88;;;;;;;13.97;64.54;101943.47;5015042;28;96639;-34
2022/05/13 06:11:43;;;;;;;1.02;0.70;;;;;;;13.93;64.77;101941.00;5015146;28;96849;-34
2022/05/13 06:14:11;;;;;;;6.22;1.13;;;;;;;14.03;65.09;101948.53;5027922;28;126880;-34
2022/05/13 06:16:37;;;;;;;4.97;0.68;;;;;;;14.05;64.55;101948.47;5035227;28;98561;-33
2022/05/13 06:19:03;;;;;;;2.83;0.52;;;;;;;14.09;64.58;101960.94;5035811;28;96563;-34
2022/05/13 06:21:33;;;;;;;2.00;0.75;;;;;;;14.16;64.43;101964.19;5034394;28;96792;-34
2022/05/13 06:24:00;;;;;;;1.27;0.68;;;;;;;14.12;63.56;101944.41;5035208;28;97958;-34
2022/05/13 06:26:26;;;;;;;0.35;0.30;;;;;;;14.15;63.41;101948.81;5033686;28;100583;-34
2022/05/13 06:28:52;;;;;;;1.70;0.68;;;;;;;14.24;63.19;101956.44;5034152;28;96658;-34
2022/05/13 06:31:18;;;;;;;5.68;0.82;;;;;;;14.30;63.01;101957.91;5033111;28;96900;-34
2022/05/13 06:33:44;;;;;;;3.65;0.77;;;;;;;14.26;62.70;101949.06;5034023;28;99260;-34
2022/05/13 06:36:11;;;;;;;2.65;0.70;;;;;;;14.28;62.68;101936.22;5032775;28;101131;-34
2022/05/13 06:38:36;;;;;;;5.60;0.82;;;;;;;14.40;62.24;101946.38;5016826;28;96610;-34
2022/05/13 06:41:02;;;;;;;1.58;0.70;;;;;;;14.42;62.30;101943.56;5035767;28;96855;-34
2022/05/13 06:43:28;;;;;;;1.58;0.60;;;;;;;14.49;62.18;101950.41;5034956;28;98951;-34
2022/05/13 06:45:53;;;;;;;5.65;0.80;;;;;;;14.54;62.21;101956.50;5007005;28;101064;-34
2022/05/13 06:48:18;;;;;;;6.15;0.57;;;;;;;14.74;61.85;101959.84;5014136;28;96812;-35
2022/05/13 06:50:46;;;;;;;0.38;0.20;;;;;;;14.92;61.39;101956.00;5013971;28;97152;-34
2022/05/13 06:53:12;;;;;;;1.38;0.60;;;;;;;14.88;61.15;101950.81;4996874;28;101292;-34
2022/05/13 06:55:39;;;;;;;1.17;0.65;;;;;;;15.00;61.07;101970.03;4996774;28;100789;-34
2022/05/13 06:58:05;;;;;;;2.20;0.70;;;;;;;15.21;60.86;101964.22;5015119;28;96573;-34
2022/05/13 07:00:30;;;;;;;1.25;0.50;;;;;;;15.24;60.76;101961.28;4996318;28;96818;-34
2022/05/13 07:02:56;;;;;;;1.00;0.47;;;;;;;15.23;60.57;101968.59;5026162;28;101152;-34
2022/05/13 07:05:21;;;;;;;2.95;0.50;;;;;;;15.18;60.29;101968.00;5013683;28;126500;-34
2022/05/13 07:07:47;;;;;;;1.42;0.70;;;;;;;15.17;60.20;101970.81;5014570;28;107105;-34
2022/05/13 07:10:13;;;;;;;3.53;0.90;;;;;;;15.14;60.43;101973.75;5030441;28;96851;-34
2022/05/13 07:12:39;;;;;;;2.78;0.77;;;;;;;15.17;60.43;101987.19;5013449;28;99555;-34
2022/05/13 07:15:07;;;;;;;1.08;0.50;;;;;;;15.17;60.01;101979.88;4996263;28;100935;-34
2022/05/13 07:17:35;;;;;;;1.45;0.60;;;;;;;15.29;60.32;101984.56;5014022;28;96841;-34
2022/05/13 07:20:00;;;;;;;5.50;0.77;;;;;;;15.41;60.18;101995.69;5013937;28;116552;-34
2022/05/13 07:22:26;;;;;;;1.80;0.60;;;;;;;15.33;59.95;101979.81;5013904;28;99242;-34
2022/05/13 07:24:51;;;;;;;7.07;1.13;;;;;;;15.49;59.76;101991.50;5014278;28;97602;-33
2022/05/13 07:27:17;;;;;;;1.30;0.57;;;;;;;15.48;59.66;101984.25;5012913;28;96715;-34
2022/05/13 07:29:45;;;;;;;0.50;0.50;;;;;;;15.49;59.88;101993.31;5015157;28;97463;-34
2022/05/13 07:32:11;;;;;;;4.68;0.90;;;;;;;15.42;59.92;101992.88;5013845;28;109547;-34
2022/05/13 07:34:36;;;;;;;4.18;0.80;;;;;;;15.46;59.96;101997.13;4995855;28;110411;-34
2022/05/13 07:37:02;;;;;;;1.45;0.60;;;;;;;15.65;59.87;101995.97;5013493;28;116326;-34
2022/05/13 07:42:12;;;;;;;3.35;0.70;;;;;;;15.81;58.92;102006.81;5014006;28;97530;-34
2022/05/13 07:44:38;;;;;;;1.30;0.70;;;;;;;15.81;59.08;102006.81;4996093;28;101141;-34
2022/05/13 07:47:06;;;;;;;2.30;0.73;;;;;;;15.82;59.07;102003.97;4996471;28;96905;-34
2022/05/13 07:49:32;;;;;;;9.40;1.17;;;;;;;15.86;59.19;102015.59;4996364;28;96834;-34
2022/05/13 07:51:57;;;;;;;2.70;0.85;;;;;;;15.99;58.71;102021.97;5014260;28;97992;-34
2022/05/13 07:54:23;;;;;;;4.35;0.47;;;;;;;16.18;57.84;102021.66;5014352;28;99133;-34
2022/05/13 07:56:48;;;;;;;2.88;1.08;;;;;;;16.24;58.10;102010.31;5013462;28;117674;-33
2022/05/13 07:59:14;;;;;;;2.85;1.02;;;;;;;16.30;58.32;102023.59;5013939;28;96915;-34
2022/05/13 08:01:39;;;;;;;4.45;1.05;;;;;;;16.37;57.53;102018.56;5013411;28;102736;-34
2022/05/13 08:04:04;;;;;;;2.38;0.85;;;;;;;16.39;57.59;102022.06;5013138;28;122534;-34
2022/05/13 08:06:30;;;;;;;1.92;0.70;;;;;;;16.58;57.67;102018.09;5013339;28;111600;-34
2022/05/13 08:08:58;;;;;;;3.67;0.80;;;;;;;16.91;56.98;102020.41;5014331;28;96950;-34
2022/05/13 08:11:25;;;;;;;2.03;0.90;;;;;;;16.98;56.10;102013.53;5012034;28;101215;-34
2022/05/13 08:13:51;;;;;;;7.28;0.82;;;;;;;17.10;56.22;102017.25;4993261;28;101094;-34
2022/05/13 08:16:20;;;;;;;1.88;0.70;;;;;;;17.17;56.10;102015.84;5027063;27;96708;-34
2022/05/13 08:18:46;;;;;;;3.00;0.80;;;;;;;17.34;55.66;102026.47;5019704;28;96828;-34
2022/05/13 08:21:12;;;;;;;5.95;0.90;;;;;;;17.44;55.65;102023.94;4997379;28;97874;-34
2022/05/13 08:23:38;;;;;;;2.53;0.70;;;;;;;17.49;54.93;102029.09;4979199;28;100527;-34
2022/05/13 08:26:04;;;;;;;5.38;0.77;;;;;;;17.63;54.98;102027.09;4997265;28;96560;-34
2022/05/13 08:28:30;;;;;;;7.75;0.82;;;;;;;17.85;54.39;102022.81;4995781;28;97206;-34
2022/05/13 08:31:01;;;;;;;7.18;1.10;;;;;;;17.99;54.24;102030.91;5008792;28;99339;-34
2022/05/13 08:33:26;;;;;;;3.70;1.25;;;;;;;18.12;54.00;102016.31;5016262;28;127677;-34
2022/05/13 08:35:56;;;;;;;2.35;1.05;;;;;;;18.30;54.16;102033.22;5016776;28;96847;-34
2022/05/13 08:38:25;;;;;;;2.40;0.93;;;;;;;18.17;53.21;102042.38;4997952;28;97017;-34
2022/05/13 08:40:51;;;;;;;6.10;0.95;;;;;;;18.24;54.05;102046.41;4998630;28;100777;-34
2022/05/13 08:43:26;;;;;;;5.38;0.68;;;;;;;18.28;53.11;102040.69;5017052;28;99204;-34
2022/05/13 08:46:05;;;;;;;5.57;0.82;;;;;;;18.22;53.17;102042.03;4998855;28;96803;-34
2022/05/13 08:48:34;;;;;;;2.30;1.08;;;;;;;18.40;52.98;102057.13;4999129;28;96753;-34
2022/05/13 08:51:06;;;;;;;4.20;1.50;;;;;;;18.27;53.46;102044.44;4998196;28;99786;-34
2022/05/13 08:53:40;;;;;;;1.45;0.73;;;;;;;18.21;53.28;102052.13;5015435;28;101276;-34
2022/05/13 08:56:25;;;;;;;3.17;0.93;;;;;;;17.78;53.28;102052.53;4998474;28;96797;-33
2022/05/13 08:59:09;;;;;;;5.43;1.30;;;;;;;17.67;54.16;102059.78;4999031;28;96745;-34
2022/05/13 09:01:42;;;;;;;4.00;0.90;;;;;;;17.53;53.99;102071.72;5015301;28;100888;-34
2022/05/13 09:04:16;;;;;;;3.50;0.75;;;;;;;17.55;54.43;102064.28;4997218;28;100960;-34
2022/05/13 09:07:16;;;;;;;3.58;0.90;;;;;;;17.88;53.20;102073.81;4998292;28;96803;-34
2022/05/13 09:09:43;;;;;;;2.92;0.90;;;;;;;17.93;53.47;102083.47;5017058;28;96777;-34
2022/05/13 09:12:20;;;;;;;3.33;0.95;;;;;;;17.74;53.32;102083.88;4997674;28;100616;-34
2022/05/13 09:14:53;;;;;;;5.93;1.05;;;;;;;17.88;53.27;102082.94;4998211;28;100505;-34
2022/05/13 09:17:28;;;;;;;3.00;0.80;;;;;;;18.09;52.50;102074.09;4997899;28;97972;-34
2022/05/13 09:20:06;;;;;;;4.32;1.15;;;;;;;17.97;53.01;102090.47;5015398;28;99662;-34
2022/05/13 09:22:33;;;;;;;2.97;0.80;;;;;;;17.69;53.68;102068.78;5016104;28;97998;-34
2022/05/13 09:24:59;;;;;;;10.95;1.17;;;;;;;17.70;54.02;102082.34;4998230;28;101218;-34
2022/05/13 09:27:24;;;;;;;0.98;0.60;;;;;;;17.88;53.10;102082.06;5015180;28;116942;-34
2022/05/13 09:29:49;;;;;;;3.03;0.98;;;;;;;17.83;53.45;102069.56;5015046;28;116473;-34
2022/05/13 09:32:27;;;;;;;2.17;1.10;;;;;;;18.20;51.68;102082.41;5016253;28;97314;-34
2022/05/13 09:35:00;;;;;;;5.32;0.90;;;;;;;18.02;52.05;102090.16;4997446;28;100820;-34
2022/05/13 09:37:34;;;;;;;2.13;0.82;;;;;;;17.77;52.59;102080.03;5016359;28;96628;-34
2022/05/13 09:40:21;;;;;;;2.58;1.10;;;;;;;17.86;52.84;102078.53;4998576;28;96579;-34
2022/05/13 09:42:51;;;;;;;3.28;0.98;;;;;;;18.25;52.07;102086.56;4997423;28;100944;-34
2022/05/13 09:45:21;;;;;;;1.25;0.57;;;;;;;18.50;51.71;102079.25;4997939;28;102367;-34
2022/05/13 09:48:05;;;;;;;4.43;1.00;;;;;;;18.69;51.16;102084.22;5016072;28;96607;-34
2022/05/13 09:50:34;;;;;;;1.45;0.60;;;;;;;18.97;50.98;102079.38;5016285;28;96767;-34
2022/05/13 09:53:04;;;;;;;2.72;0.90;;;;;;;19.00;51.18;102081.91;4997881;28;99420;-34
2022/05/13 09:55:36;;;;;;;2.80;1.10;;;;;;;19.14;50.45;102067.06;4997744;28;100536;-34
2022/05/13 09:58:05;;;;;;;2.67;0.65;;;;;;;19.18;50.52;102085.06;4997900;28;96594;-34
2022/05/13 10:00:36;;;;;;;3.42;0.80;;;;;;;19.48;50.34;102090.03;4998439;28;96924;-34
2022/05/13 10:03:20;;;;;;;2.15;1.02;;;;;;;19.74;49.27;102096.22;4997806;28;100899;-34
2022/05/13 10:06:09;;;;;;;5.50;1.13;;;;;;;19.74;46.86;102090.72;4997765;28;99462;-34
2022/05/13 10:08:37;;;;;;;3.30;1.08;;;;;;;19.97;48.34;102087.97;5013738;28;96805;-34
2022/05/13 10:13:59;;;;;;;2.97;1.20;;;;;;;20.22;48.40;102068.44;5015256;28;97127;-34
2022/05/13 10:16:37;;;;;;;4.03;1.08;;;;;;;20.20;47.82;102081.44;4997315;28;100680;-34
2022/05/13 10:19:05;;;;;;;3.45;0.90;;;;;;;20.31;47.53;102088.81;5015664;28;96835;-34
2022/05/13 10:21:41;;;;;;;2.85;0.93;;;;;;;20.40;47.15;102078.91;5015622;28;101076;-34
2022/05/13 10:24:44;;;;;;;1.73;0.57;;;;;;;20.61;47.29;102085.38;4997371;28;101007;-34
2022/05/13 10:27:24;;;;;;;0.98;0.70;;;;;;;20.67;47.23;102071.13;5015603;28;97846;-34
2022/05/13 10:29:54;;;;;;;5.15;0.88;;;;;;;20.63;47.40;102088.88;4997743;28;96721;-34
2022/05/13 10:32:27;;;;;;;2.75;0.90;;;;;;;20.15;46.60;102079.06;4997597;28;96603;-34
2022/05/13 10:34:56;;;;;;;5.03;0.93;;;;;;;20.02;48.14;102083.84;4996841;28;101312;-34
2022/05/13 10:38:02;;;;;;;5.05;1.20;;;;;;;19.89;47.84;102091.34;4997240;28;100670;-34
2022/05/13 10:40:35;;;;;;;3.85;0.93;;;;;;;19.52;47.94;102092.41;5014365;28;96714;-34
2022/05/13 10:43:22;;;;;;;3.70;0.77;;;;;;;19.26;48.70;102099.09;4997362;28;96713;-34
2022/05/13 10:45:50;;;;;;;4.30;1.05;;;;;;;19.04;49.68;102084.28;5014589;28;98981;-34
2022/05/13 10:48:29;;;;;;;2.42;0.90;;;;;;;18.97;49.04;102090.34;4996881;28;100491;-34
2022/05/13 10:51:06;;;;;;;3.35;1.20;;;;;;;18.86;49.87;102091.19;5015108;28;96680;-34
2022/05/13 10:53:46;;;;;;;3.53;0.90;;;;;;;18.87;50.54;102104.78;5014481;28;96709;-34
2022/05/13 10:56:26;;;;;;;5.75;0.93;;;;;;;18.97;50.18;102085.72;4996835;28;101100;-34
2022/05/13 10:59:19;;;;;;;1.52;0.47;;;;;;;19.25;48.89;102091.81;4996861;28;101294;-34
2022/05/13 11:01:48;;;;;;;7.03;1.13;;;;;;;19.39;49.51;102094.38;5013235;28;96709;-34
2022/05/13 11:04:47;;;;;;;2.55;0.65;;;;;;;19.79;48.42;102101.34;5013784;28;96941;-34
2022/05/13 11:07:37;;;;;;;3.50;0.88;;;;;;;20.13;47.02;102091.22;5014821;28;98075;-34
2022/05/13 11:10:18;;;;;;;3.63;0.93;;;;;;;19.89;47.33;102083.09;5014866;28;97367;-34
2022/05/13 11:13:19;;;;;;;4.35;1.00;;;;;;;19.97;47.93;102083.31;5014348;28;96876;-35
2022/05/13 11:15:54;;;;;;;7.68;1.05;;;;;;;19.92;47.02;102088.34;5014892;28;96648;-34
2022/05/13 11:18:37;;;;;;;3.03;0.73;;;;;;;19.74;47.38;102087.97;5014267;28;99346;-34
2022/05/13 11:21:21;;;;;;;4.18;1.10;;;;;;;19.77;48.01;102079.47;5014984;28;97856;-34
2022/05/13 11:27:18;;;;;;;0.97;0.63;;;;;;;19.39;47.53;102072.38;5015255;28;96552;-34
2022/05/13 11:30:07;;;;;;;3.53;0.63;;;;;;;19.73;48.46;102078.84;4995864;28;100953;-34
2022/05/13 11:32:39;;;;;;;3.45;0.95;;;;;;;19.68;47.52;102094.81;4996330;28;100454;-34
2022/05/13 11:35:36;;;;;;;4.38;1.40;;;;;;;19.84;47.58;102088.09;4996669;28;96631;-34
2022/05/13 11:38:08;;;;;;;4.00;0.90;;;;;;;19.88;47.78;102087.72;5014605;28;96884;-34
2022/05/13 11:40:53;;;;;;;3.78;0.63;;;;;;;20.09;45.41;102086.94;4996438;28;100723;-34
2022/05/13 11:43:31;;;;;;;2.63;0.88;;;;;;;20.06;45.71;102087.22;4996235;28;100929;-34
2022/05/13 11:46:25;;;;;;;2.92;0.75;;;;;;;19.90;47.01;102085.72;5013293;28;96756;-34
2022/05/13 11:48:55;;;;;;;2.40;0.57;;;;;;;19.78;46.14;102094.94;5013524;28;96746;-34
2022/05/13 11:51:23;;;;;;;5.68;0.80;;;;;;;20.07;46.83;102088.94;4996355;28;100846;-34
2022/05/13 11:54:14;;;;;;;5.78;0.98;;;;;;;20.45;45.42;102098.66;5017528;28;98769;-34